sensor_id;sensor_type;location;lat;lon;timestamp;temperature;humidity
22114;DHT22;11223;49.968;9.062;2023-04-12T00:01:55;7.70;99.90
22114;DHT22;11223;49.968;9.062;2023-04-12T00:04:21;7.70;99.90
22114;DHT22;11223;49.968;9.062;2023-04-12T00:06:47;7.70;99.90
22114;DHT22;11223;49.968;9.062;2023-04-12T00:09:13;7.70;99.90
22114;DHT22;11223;49.968;9.062;2023-04-12T00:11:40;7.60;99.90
22114;DHT22;11223;49.968;9.062;2023-04-12T00:14:05;7.70;99.90
22114;DHT22;11223;49.968;9.062;2023-04-12T00:16:31;7.60;99.90
22114;DHT22;11223;49.968;9.062;2023-04-12T00:18:56;7.70;99.90
22114;DHT22;11223;49.968;9.062;2023-04-12T00:21:22;7.60;99.90
22114;DHT22;11223;49.968;9.062;2023-04-12T00:23:48;7.60;99.90
22114;DHT22;11223;49.968;9.062;2023-04-12T00:26:14;7.70;99.90
22114;DHT22;11223;49.968;9.062;2023-04-12T00:28:41;7.70;99.90
22114;DHT22;11223;49.968;9.062;2023-04-12T00:31:07;7.70;99.90
22114;DHT22;11223;49.968;9.062;2023-04-12T00:33:33;7.80;99.90
22114;DHT22;11223;49.968;9.062;2023-04-12T00:35:59;7.80;99.90
22114;DHT22;11223;49.968;9.062;2023-04-12T00:38:25;7.80;99.90
22114;DHT22;11223;49.968;9.062;2023-04-12T00:40:51;7.80;99.90
22114;DHT22;11223;49.968;9.062;2023-04-12T00:43:17;7.80;99.90
22114;DHT22;11223;49.968;9.062;2023-04-12T00:45:46;7.90;99.90
22114;DHT22;11223;49.968;9.062;2023-04-12T00:48:12;7.90;99.90
22114;DHT22;11223;49.968;9.062;2023-04-12T00:50:38;7.90;99.90
22114;DHT22;11223;49.968;9.062;2023-04-12T00:53:06;8.00;99.90
22114;DHT22;11223;49.968;9.062;2023-04-12T00:55:34;8.00;99.90
22114;DHT22;11223;49.968;9.062;2023-04-12T00:58:00;8.00;99.90
22114;DHT22;11223;49.968;9.062;2023-04-12T01:00:26;8.00;99.90
22114;DHT22;11223;49.968;9.062;2023-04-12T01:02:52;8.10;99.90
22114;DHT22;11223;49.968;9.062;2023-04-12T01:05:22;8.10;99.90
22114;DHT22;11223;49.968;9.062;2023-04-12T01:16:05;8.00;99.90
22114;DHT22;11223;49.968;9.062;2023-04-12T01:18:36;8.00;99.90
22114;DHT22;11223;49.968;9.062;2023-04-12T01:21:13;8.00;99.90
22114;DHT22;11223;49.968;9.062;2023-04-12T01:29:08;7.90;99.90
22114;DHT22;11223;49.968;9.062;2023-04-12T01:31:34;7.90;99.90
22114;DHT22;11223;49.968;9.062;2023-04-12T01:34:02;7.90;99.90
22114;DHT22;11223;49.968;9.062;2023-04-12T01:36:29;7.80;99.90
22114;DHT22;11223;49.968;9.062;2023-04-12T01:38:56;7.80;99.90
22114;DHT22;11223;49.968;9.062;2023-04-12T01:41:22;7.80;99.90
22114;DHT22;11223;49.968;9.062;2023-04-12T01:43:48;7.80;99.90
22114;DHT22;11223;49.968;9.062;2023-04-12T01:46:15;7.80;99.90
22114;DHT22;11223;49.968;9.062;2023-04-12T01:48:54;7.80;99.90
22114;DHT22;11223;49.968;9.062;2023-04-12T01:51:49;7.80;99.90
22114;DHT22;11223;49.968;9.062;2023-04-12T01:54:21;7.80;99.90
22114;DHT22;11223;49.968;9.062;2023-04-12T01:56:50;7.80;99.90
22114;DHT22;11223;49.968;9.062;2023-04-12T01:59:17;7.80;99.90
22114;DHT22;11223;49.968;9.062;2023-04-12T02:01:44;7.80;99.90
22114;DHT22;11223;49.968;9.062;2023-04-12T02:04:11;7.80;99.90
22114;DHT22;11223;49.968;9.062;2023-04-12T02:06:39;7.80;99.90
22114;DHT22;11223;49.968;9.062;2023-04-12T02:09:05;7.80;99.90
22114;DHT22;11223;49.968;9.062;2023-04-12T02:11:31;7.80;99.90
22114;DHT22;11223;49.968;9.062;2023-04-12T02:13:56;7.80;99.90
22114;DHT22;11223;49.968;9.062;2023-04-12T02:16:22;7.90;99.90
22114;DHT22;11223;49.968;9.062;2023-04-12T02:18:49;7.90;99.90
22114;DHT22;11223;49.968;9.062;2023-04-12T02:21:15;7.90;99.90
22114;DHT22;11223;49.968;9.062;2023-04-12T02:23:41;7.90;99.90
22114;DHT22;11223;49.968;9.062;2023-04-12T02:26:08;7.90;99.90
22114;DHT22;11223;49.968;9.062;2023-04-12T02:28:34;7.90;99.90
22114;DHT22;11223;49.968;9.062;2023-04-12T02:31:01;8.00;99.90
22114;DHT22;11223;49.968;9.062;2023-04-12T02:33:27;8.00;99.90
22114;DHT22;11223;49.968;9.062;2023-04-12T02:35:53;8.00;99.90
22114;DHT22;11223;49.968;9.062;2023-04-12T02:38:20;8.00;99.90
22114;DHT22;11223;49.968;9.062;2023-04-12T02:40:45;8.10;99.90
22114;DHT22;11223;49.968;9.062;2023-04-12T02:43:11;8.10;99.90
22114;DHT22;11223;49.968;9.062;2023-04-12T02:45:37;8.00;99.90
22114;DHT22;11223;49.968;9.062;2023-04-12T02:48:03;8.10;99.90
22114;DHT22;11223;49.968;9.062;2023-04-12T02:50:29;8.00;99.90
22114;DHT22;11223;49.968;9.062;2023-04-12T02:52:55;8.10;99.90
22114;DHT22;11223;49.968;9.062;2023-04-12T02:55:21;8.10;99.90
22114;DHT22;11223;49.968;9.062;2023-04-12T02:57:46;8.10;99.90
22114;DHT22;11223;49.968;9.062;2023-04-12T03:00:13;8.10;99.90
22114;DHT22;11223;49.968;9.062;2023-04-12T03:02:42;8.20;99.90
22114;DHT22;11223;49.968;9.062;2023-04-12T03:05:08;8.20;99.90
22114;DHT22;11223;49.968;9.062;2023-04-12T03:07:34;8.20;99.90
22114;DHT22;11223;49.968;9.062;2023-04-12T03:10:03;8.20;99.90
22114;DHT22;11223;49.968;9.062;2023-04-12T03:12:32;8.20;99.90
22114;DHT22;11223;49.968;9.062;2023-04-12T03:14:57;8.20;99.90
22114;DHT22;11223;49.968;9.062;2023-04-12T03:17:23;8.20;99.90
22114;DHT22;11223;49.968;9.062;2023-04-12T03:19:48;8.20;99.90
22114;DHT22;11223;49.968;9.062;2023-04-12T03:22:14;8.20;99.90
22114;DHT22;11223;49.968;9.062;2023-04-12T03:24:40;8.20;99.90
22114;DHT22;11223;49.968;9.062;2023-04-12T03:27:07;8.20;99.90
22114;DHT22;11223;49.968;9.062;2023-04-12T03:29:33;8.20;99.90
22114;DHT22;11223;49.968;9.062;2023-04-12T03:31:58;8.20;99.90
22114;DHT22;11223;49.968;9.062;2023-04-12T03:34:25;8.20;99.90
22114;DHT22;11223;49.968;9.062;2023-04-12T03:36:53;8.20;99.90
22114;DHT22;11223;49.968;9.062;2023-04-12T03:39:19;8.20;99.90
22114;DHT22;11223;49.968;9.062;2023-04-12T03:41:45;8.20;99.90
22114;DHT22;11223;49.968;9.062;2023-04-12T03:44:10;8.10;99.90
22114;DHT22;11223;49.968;9.062;2023-04-12T03:46:36;8.10;99.90
22114;DHT22;11223;49.968;9.062;2023-04-12T03:49:02;8.10;99.90
22114;DHT22;11223;49.968;9.062;2023-04-12T03:51:27;8.10;99.90
22114;DHT22;11223;49.968;9.062;2023-04-12T03:53:55;8.10;99.90
22114;DHT22;11223;49.968;9.062;2023-04-12T03:56:21;8.00;99.90
22114;DHT22;11223;49.968;9.062;2023-04-12T03:58:46;8.00;99.90
22114;DHT22;11223;49.968;9.062;2023-04-12T04:01:12;8.00;99.90
22114;DHT22;11223;49.968;9.062;2023-04-12T04:03:39;8.00;99.90
22114;DHT22;11223;49.968;9.062;2023-04-12T04:06:06;7.90;99.90
22114;DHT22;11223;49.968;9.062;2023-04-12T04:08:32;7.90;99.90
22114;DHT22;11223;49.968;9.062;2023-04-12T04:10:59;7.90;99.90
22114;DHT22;11223;49.968;9.062;2023-04-12T04:13:25;7.90;99.90
22114;DHT22;11223;49.968;9.062;2023-04-12T04:16:01;7.90;99.90
22114;DHT22;11223;49.968;9.062;2023-04-12T04:18:27;7.90;99.90
22114;DHT22;11223;49.968;9.062;2023-04-12T04:20:52;7.80;99.90
22114;DHT22;11223;49.968;9.062;2023-04-12T04:23:18;7.80;99.90
22114;DHT22;11223;49.968;9.062;2023-04-12T04:25:43;7.80;99.90
22114;DHT22;11223;49.968;9.062;2023-04-12T04:28:09;7.80;99.90
22114;DHT22;11223;49.968;9.062;2023-04-12T04:30:35;7.80;99.90
22114;DHT22;11223;49.968;9.062;2023-04-12T04:33:04;7.80;99.90
22114;DHT22;11223;49.968;9.062;2023-04-12T04:35:30;7.80;99.90
22114;DHT22;11223;49.968;9.062;2023-04-12T04:37:56;7.70;99.90
22114;DHT22;11223;49.968;9.062;2023-04-12T04:40:21;7.80;99.90
22114;DHT22;11223;49.968;9.062;2023-04-12T04:42:49;7.70;99.90
22114;DHT22;11223;49.968;9.062;2023-04-12T04:45:24;7.80;99.90
22114;DHT22;11223;49.968;9.062;2023-04-12T04:47:55;7.80;99.90
22114;DHT22;11223;49.968;9.062;2023-04-12T04:50:21;7.70;99.90
22114;DHT22;11223;49.968;9.062;2023-04-12T04:52:50;7.70;99.90
22114;DHT22;11223;49.968;9.062;2023-04-12T04:55:16;7.70;99.90
22114;DHT22;11223;49.968;9.062;2023-04-12T04:57:43;7.70;99.90
22114;DHT22;11223;49.968;9.062;2023-04-12T05:00:09;7.70;99.90
22114;DHT22;11223;49.968;9.062;2023-04-12T05:02:39;7.70;99.90
22114;DHT22;11223;49.968;9.062;2023-04-12T05:05:13;7.70;99.90
22114;DHT22;11223;49.968;9.062;2023-04-12T05:07:40;7.70;99.90
22114;DHT22;11223;49.968;9.062;2023-04-12T05:10:08;7.70;99.90
22114;DHT22;11223;49.968;9.062;2023-04-12T05:12:33;7.70;99.90
22114;DHT22;11223;49.968;9.062;2023-04-12T05:15:00;7.70;99.90
22114;DHT22;11223;49.968;9.062;2023-04-12T05:17:26;7.70;99.90
22114;DHT22;11223;49.968;9.062;2023-04-12T05:19:52;7.80;99.90
22114;DHT22;11223;49.968;9.062;2023-04-12T05:22:18;7.80;99.90
22114;DHT22;11223;49.968;9.062;2023-04-12T05:24:47;7.80;99.90
22114;DHT22;11223;49.968;9.062;2023-04-12T05:27:13;7.80;99.90
22114;DHT22;11223;49.968;9.062;2023-04-12T05:29:41;7.80;99.90
22114;DHT22;11223;49.968;9.062;2023-04-12T05:32:07;7.80;99.90
22114;DHT22;11223;49.968;9.062;2023-04-12T05:34:32;7.80;99.90
22114;DHT22;11223;49.968;9.062;2023-04-12T05:36:58;7.80;99.90
22114;DHT22;11223;49.968;9.062;2023-04-12T05:39:25;7.90;99.90
22114;DHT22;11223;49.968;9.062;2023-04-12T05:41:51;7.80;99.90
22114;DHT22;11223;49.968;9.062;2023-04-12T05:44:17;7.90;99.90
22114;DHT22;11223;49.968;9.062;2023-04-12T05:46:43;7.80;99.90
22114;DHT22;11223;49.968;9.062;2023-04-12T05:49:09;7.90;99.90
22114;DHT22;11223;49.968;9.062;2023-04-12T05:51:35;7.90;99.90
22114;DHT22;11223;49.968;9.062;2023-04-12T05:54:00;7.90;99.90
22114;DHT22;11223;49.968;9.062;2023-04-12T05:56:28;7.80;99.90
22114;DHT22;11223;49.968;9.062;2023-04-12T05:58:53;7.90;99.90
22114;DHT22;11223;49.968;9.062;2023-04-12T06:01:19;7.90;99.90
22114;DHT22;11223;49.968;9.062;2023-04-12T06:03:47;7.90;99.90
22114;DHT22;11223;49.968;9.062;2023-04-12T06:06:13;7.90;99.90
22114;DHT22;11223;49.968;9.062;2023-04-12T06:08:39;7.90;99.90
22114;DHT22;11223;49.968;9.062;2023-04-12T06:11:05;7.90;99.90
22114;DHT22;11223;49.968;9.062;2023-04-12T06:13:32;7.90;99.90
22114;DHT22;11223;49.968;9.062;2023-04-12T06:15:58;8.00;99.90
22114;DHT22;11223;49.968;9.062;2023-04-12T06:18:23;8.00;99.90
22114;DHT22;11223;49.968;9.062;2023-04-12T06:20:49;8.00;99.90
22114;DHT22;11223;49.968;9.062;2023-04-12T06:23:15;8.00;99.90
22114;DHT22;11223;49.968;9.062;2023-04-12T06:25:41;8.00;99.90
22114;DHT22;11223;49.968;9.062;2023-04-12T06:28:07;8.00;99.90
22114;DHT22;11223;49.968;9.062;2023-04-12T06:30:32;8.10;99.90
22114;DHT22;11223;49.968;9.062;2023-04-12T06:32:58;8.10;99.90
22114;DHT22;11223;49.968;9.062;2023-04-12T06:35:23;8.10;99.90
22114;DHT22;11223;49.968;9.062;2023-04-12T06:37:49;8.10;99.90
22114;DHT22;11223;49.968;9.062;2023-04-12T06:40:15;8.10;99.90
22114;DHT22;11223;49.968;9.062;2023-04-12T06:42:40;8.10;99.90
22114;DHT22;11223;49.968;9.062;2023-04-12T06:45:06;8.10;99.90
22114;DHT22;11223;49.968;9.062;2023-04-12T06:47:32;8.10;99.90
22114;DHT22;11223;49.968;9.062;2023-04-12T06:49:57;8.10;99.90
22114;DHT22;11223;49.968;9.062;2023-04-12T06:52:23;8.10;99.90
22114;DHT22;11223;49.968;9.062;2023-04-12T06:54:51;8.10;99.90
22114;DHT22;11223;49.968;9.062;2023-04-12T06:57:16;8.10;99.90
22114;DHT22;11223;49.968;9.062;2023-04-12T06:59:42;8.10;99.90
22114;DHT22;11223;49.968;9.062;2023-04-12T07:02:08;8.10;99.90
22114;DHT22;11223;49.968;9.062;2023-04-12T07:04:33;8.20;99.90
22114;DHT22;11223;49.968;9.062;2023-04-12T07:06:59;8.20;99.90
22114;DHT22;11223;49.968;9.062;2023-04-12T07:09:25;8.20;99.90
22114;DHT22;11223;49.968;9.062;2023-04-12T07:11:50;8.20;99.90
22114;DHT22;11223;49.968;9.062;2023-04-12T07:14:16;8.20;99.90
22114;DHT22;11223;49.968;9.062;2023-04-12T07:16:42;8.30;99.90
22114;DHT22;11223;49.968;9.062;2023-04-12T07:19:07;8.30;99.90
22114;DHT22;11223;49.968;9.062;2023-04-12T07:21:33;8.30;99.90
22114;DHT22;11223;49.968;9.062;2023-04-12T07:23:59;8.30;99.90
22114;DHT22;11223;49.968;9.062;2023-04-12T07:26:24;8.30;99.90
22114;DHT22;11223;49.968;9.062;2023-04-12T07:28:50;8.30;99.90
22114;DHT22;11223;49.968;9.062;2023-04-12T07:31:16;8.30;99.90
22114;DHT22;11223;49.968;9.062;2023-04-12T07:33:42;8.30;99.90
22114;DHT22;11223;49.968;9.062;2023-04-12T07:36:08;8.30;99.90
22114;DHT22;11223;49.968;9.062;2023-04-12T07:38:34;8.40;99.90
22114;DHT22;11223;49.968;9.062;2023-04-12T07:40:59;8.40;99.90
22114;DHT22;11223;49.968;9.062;2023-04-12T07:43:25;8.40;99.90
22114;DHT22;11223;49.968;9.062;2023-04-12T07:45:50;8.40;99.90
22114;DHT22;11223;49.968;9.062;2023-04-12T07:48:18;8.40;99.90
22114;DHT22;11223;49.968;9.062;2023-04-12T07:50:44;8.50;99.90
22114;DHT22;11223;49.968;9.062;2023-04-12T07:53:28;8.50;99.90
22114;DHT22;11223;49.968;9.062;2023-04-12T07:55:55;8.50;99.90
22114;DHT22;11223;49.968;9.062;2023-04-12T07:58:22;8.50;99.90
22114;DHT22;11223;49.968;9.062;2023-04-12T08:00:48;8.50;99.90
22114;DHT22;11223;49.968;9.062;2023-04-12T08:03:15;8.50;99.90
22114;DHT22;11223;49.968;9.062;2023-04-12T08:05:42;8.60;99.90
22114;DHT22;11223;49.968;9.062;2023-04-12T08:08:08;8.60;99.90
22114;DHT22;11223;49.968;9.062;2023-04-12T08:10:35;8.70;99.90
22114;DHT22;11223;49.968;9.062;2023-04-12T08:13:02;8.70;99.90
22114;DHT22;11223;49.968;9.062;2023-04-12T08:15:27;8.80;99.90
22114;DHT22;11223;49.968;9.062;2023-04-12T08:17:53;8.80;99.90
22114;DHT22;11223;49.968;9.062;2023-04-12T08:20:19;8.90;99.90
22114;DHT22;11223;49.968;9.062;2023-04-12T08:22:45;8.90;99.90
22114;DHT22;11223;49.968;9.062;2023-04-12T08:25:11;9.00;99.90
22114;DHT22;11223;49.968;9.062;2023-04-12T08:27:38;9.00;99.90
22114;DHT22;11223;49.968;9.062;2023-04-12T08:30:06;9.00;99.90
22114;DHT22;11223;49.968;9.062;2023-04-12T08:32:35;9.10;99.90
22114;DHT22;11223;49.968;9.062;2023-04-12T08:35:04;9.00;99.90
22114;DHT22;11223;49.968;9.062;2023-04-12T08:37:30;9.00;99.90
22114;DHT22;11223;49.968;9.062;2023-04-12T08:39:58;9.00;99.90
22114;DHT22;11223;49.968;9.062;2023-04-12T08:42:24;9.00;99.90
22114;DHT22;11223;49.968;9.062;2023-04-12T08:44:49;9.00;99.90
22114;DHT22;11223;49.968;9.062;2023-04-12T08:47:16;9.00;99.90
22114;DHT22;11223;49.968;9.062;2023-04-12T08:49:42;9.00;99.90
22114;DHT22;11223;49.968;9.062;2023-04-12T08:52:09;9.00;99.90
22114;DHT22;11223;49.968;9.062;2023-04-12T08:54:36;9.00;99.90
22114;DHT22;11223;49.968;9.062;2023-04-12T08:57:04;9.00;99.90
22114;DHT22;11223;49.968;9.062;2023-04-12T08:59:33;9.10;99.90
22114;DHT22;11223;49.968;9.062;2023-04-12T09:02:00;9.10;99.90
22114;DHT22;11223;49.968;9.062;2023-04-12T09:04:26;9.10;99.90
22114;DHT22;11223;49.968;9.062;2023-04-12T09:06:52;9.20;99.90
22114;DHT22;11223;49.968;9.062;2023-04-12T09:09:18;9.20;99.90
22114;DHT22;11223;49.968;9.062;2023-04-12T09:11:43;9.30;99.90
22114;DHT22;11223;49.968;9.062;2023-04-12T09:14:23;9.30;99.90
22114;DHT22;11223;49.968;9.062;2023-04-12T09:16:49;9.40;99.90
22114;DHT22;11223;49.968;9.062;2023-04-12T09:19:15;9.40;99.90
22114;DHT22;11223;49.968;9.062;2023-04-12T09:21:56;9.40;99.90
22114;DHT22;11223;49.968;9.062;2023-04-12T09:24:22;9.50;99.90
22114;DHT22;11223;49.968;9.062;2023-04-12T09:27:04;9.40;99.90
22114;DHT22;11223;49.968;9.062;2023-04-12T09:29:31;9.50;99.90
22114;DHT22;11223;49.968;9.062;2023-04-12T09:32:03;9.50;99.90
22114;DHT22;11223;49.968;9.062;2023-04-12T09:34:31;9.60;99.90
22114;DHT22;11223;49.968;9.062;2023-04-12T09:36:58;9.60;99.90
22114;DHT22;11223;49.968;9.062;2023-04-12T09:39:33;9.70;99.90
22114;DHT22;11223;49.968;9.062;2023-04-12T09:42:07;9.70;99.90
22114;DHT22;11223;49.968;9.062;2023-04-12T09:44:33;9.70;99.90
22114;DHT22;11223;49.968;9.062;2023-04-12T09:47:00;9.70;99.90
22114;DHT22;11223;49.968;9.062;2023-04-12T09:49:37;9.70;99.90
22114;DHT22;11223;49.968;9.062;2023-04-12T09:52:04;9.80;99.90
22114;DHT22;11223;49.968;9.062;2023-04-12T09:54:36;9.70;99.90
22114;DHT22;11223;49.968;9.062;2023-04-12T09:57:06;9.80;99.90
22114;DHT22;11223;49.968;9.062;2023-04-12T09:59:39;9.80;99.90
22114;DHT22;11223;49.968;9.062;2023-04-12T10:02:14;9.80;99.90
22114;DHT22;11223;49.968;9.062;2023-04-12T10:04:41;9.90;99.90
22114;DHT22;11223;49.968;9.062;2023-04-12T10:07:07;9.90;99.90
22114;DHT22;11223;49.968;9.062;2023-04-12T10:09:36;9.90;99.90
22114;DHT22;11223;49.968;9.062;2023-04-12T10:12:02;10.00;99.90
22114;DHT22;11223;49.968;9.062;2023-04-12T10:14:28;10.00;99.90
22114;DHT22;11223;49.968;9.062;2023-04-12T10:17:05;10.00;99.90
22114;DHT22;11223;49.968;9.062;2023-04-12T10:19:32;10.00;99.90
22114;DHT22;11223;49.968;9.062;2023-04-12T10:21:59;10.00;99.90
22114;DHT22;11223;49.968;9.062;2023-04-12T10:24:26;10.00;99.90
22114;DHT22;11223;49.968;9.062;2023-04-12T10:26:53;10.00;99.90
22114;DHT22;11223;49.968;9.062;2023-04-12T10:29:27;10.10;99.90
22114;DHT22;11223;49.968;9.062;2023-04-12T10:31:55;10.00;99.90
22114;DHT22;11223;49.968;9.062;2023-04-12T10:34:29;10.10;99.90
22114;DHT22;11223;49.968;9.062;2023-04-12T10:37:00;10.00;99.90
22114;DHT22;11223;49.968;9.062;2023-04-12T10:39:41;10.10;99.90
22114;DHT22;11223;49.968;9.062;2023-04-12T10:42:15;10.10;99.90
22114;DHT22;11223;49.968;9.062;2023-04-12T10:44:41;10.20;99.90
22114;DHT22;11223;49.968;9.062;2023-04-12T10:47:07;10.20;99.90
22114;DHT22;11223;49.968;9.062;2023-04-12T10:49:34;10.30;99.90
22114;DHT22;11223;49.968;9.062;2023-04-12T10:56:56;10.40;99.90
22114;DHT22;11223;49.968;9.062;2023-04-12T10:59:22;10.50;99.90
22114;DHT22;11223;49.968;9.062;2023-04-12T11:04:31;10.60;99.90
22114;DHT22;11223;49.968;9.062;2023-04-12T11:07:01;10.60;99.90
22114;DHT22;11223;49.968;9.062;2023-04-12T11:09:37;10.60;99.90
22114;DHT22;11223;49.968;9.062;2023-04-12T11:14:34;10.80;99.90
22114;DHT22;11223;49.968;9.062;2023-04-12T11:19:45;11.00;99.90
22114;DHT22;11223;49.968;9.062;2023-04-12T11:22:12;11.10;99.90
22114;DHT22;11223;49.968;9.062;2023-04-12T11:24:42;11.20;99.90
22114;DHT22;11223;49.968;9.062;2023-04-12T11:27:09;11.30;99.90
22114;DHT22;11223;49.968;9.062;2023-04-12T11:29:35;11.30;99.90
22114;DHT22;11223;49.968;9.062;2023-04-12T11:32:11;11.30;99.90
22114;DHT22;11223;49.968;9.062;2023-04-12T11:34:38;11.30;99.90
22114;DHT22;11223;49.968;9.062;2023-04-12T11:37:05;11.30;99.90
22114;DHT22;11223;49.968;9.062;2023-04-12T11:39:42;11.30;99.90
22114;DHT22;11223;49.968;9.062;2023-04-12T11:42:16;11.30;99.90
22114;DHT22;11223;49.968;9.062;2023-04-12T11:44:43;11.30;99.90
22114;DHT22;11223;49.968;9.062;2023-04-12T11:47:19;11.20;99.90
22114;DHT22;11223;49.968;9.062;2023-04-12T11:49:47;11.20;99.90
22114;DHT22;11223;49.968;9.062;2023-04-12T11:52:14;11.20;99.90
22114;DHT22;11223;49.968;9.062;2023-04-12T11:54:48;11.20;99.90
22114;DHT22;11223;49.968;9.062;2023-04-12T11:57:16;11.20;99.90
22114;DHT22;11223;49.968;9.062;2023-04-12T11:59:43;11.20;99.90
22114;DHT22;11223;49.968;9.062;2023-04-12T12:02:09;11.30;99.90
22114;DHT22;11223;49.968;9.062;2023-04-12T12:04:35;11.30;99.90
22114;DHT22;11223;49.968;9.062;2023-04-12T12:07:01;11.30;99.90
22114;DHT22;11223;49.968;9.062;2023-04-12T12:09:27;11.40;99.90
22114;DHT22;11223;49.968;9.062;2023-04-12T12:11:54;11.40;99.90
22114;DHT22;11223;49.968;9.062;2023-04-12T12:14:21;11.50;99.90
22114;DHT22;11223;49.968;9.062;2023-04-12T12:16:58;11.60;99.90
22114;DHT22;11223;49.968;9.062;2023-04-12T12:19:31;11.80;99.90
22114;DHT22;11223;49.968;9.062;2023-04-12T12:22:09;12.10;99.90
22114;DHT22;11223;49.968;9.062;2023-04-12T12:24:36;12.30;99.90
22114;DHT22;11223;49.968;9.062;2023-04-12T12:27:02;12.40;99.90
22114;DHT22;11223;49.968;9.062;2023-04-12T12:29:35;12.50;99.90
22114;DHT22;11223;49.968;9.062;2023-04-12T12:32:02;12.60;99.90
22114;DHT22;11223;49.968;9.062;2023-04-12T12:34:32;12.60;99.90
22114;DHT22;11223;49.968;9.062;2023-04-12T12:37:01;12.60;99.90
22114;DHT22;11223;49.968;9.062;2023-04-12T12:39:26;12.60;99.90
22114;DHT22;11223;49.968;9.062;2023-04-12T12:41:53;12.60;99.90
22114;DHT22;11223;49.968;9.062;2023-04-12T12:44:23;12.50;99.90
22114;DHT22;11223;49.968;9.062;2023-04-12T12:46:49;12.50;99.90
22114;DHT22;11223;49.968;9.062;2023-04-12T12:49:15;12.40;99.90
22114;DHT22;11223;49.968;9.062;2023-04-12T12:51:41;12.40;99.90
22114;DHT22;11223;49.968;9.062;2023-04-12T12:54:07;12.40;99.90
22114;DHT22;11223;49.968;9.062;2023-04-12T12:56:32;12.30;99.90
22114;DHT22;11223;49.968;9.062;2023-04-12T12:59:00;12.30;99.90
22114;DHT22;11223;49.968;9.062;2023-04-12T13:01:25;12.30;99.90
22114;DHT22;11223;49.968;9.062;2023-04-12T13:03:52;12.40;99.90
22114;DHT22;11223;49.968;9.062;2023-04-12T13:06:17;12.40;99.90
22114;DHT22;11223;49.968;9.062;2023-04-12T13:08:43;12.40;99.90
22114;DHT22;11223;49.968;9.062;2023-04-12T13:11:08;12.30;99.90
22114;DHT22;11223;49.968;9.062;2023-04-12T13:13:34;12.30;99.90
22114;DHT22;11223;49.968;9.062;2023-04-12T13:15:59;12.40;99.90
22114;DHT22;11223;49.968;9.062;2023-04-12T13:18:25;12.40;99.90
22114;DHT22;11223;49.968;9.062;2023-04-12T13:20:51;12.40;99.90
22114;DHT22;11223;49.968;9.062;2023-04-12T13:23:16;12.40;99.90
22114;DHT22;11223;49.968;9.062;2023-04-12T13:25:42;12.40;99.90
22114;DHT22;11223;49.968;9.062;2023-04-12T13:28:07;12.50;99.90
22114;DHT22;11223;49.968;9.062;2023-04-12T13:30:33;12.50;99.90
22114;DHT22;11223;49.968;9.062;2023-04-12T13:32:58;12.60;99.90
22114;DHT22;11223;49.968;9.062;2023-04-12T13:35:24;12.60;99.90
22114;DHT22;11223;49.968;9.062;2023-04-12T13:37:49;12.70;99.90
22114;DHT22;11223;49.968;9.062;2023-04-12T13:40:15;12.80;99.90
22114;DHT22;11223;49.968;9.062;2023-04-12T13:42:40;12.80;99.90
22114;DHT22;11223;49.968;9.062;2023-04-12T13:45:06;12.90;99.90
22114;DHT22;11223;49.968;9.062;2023-04-12T13:47:32;12.90;99.90
22114;DHT22;11223;49.968;9.062;2023-04-12T13:49:59;13.10;99.90
22114;DHT22;11223;49.968;9.062;2023-04-12T13:52:25;13.40;99.90
22114;DHT22;11223;49.968;9.062;2023-04-12T13:54:51;13.60;99.90
22114;DHT22;11223;49.968;9.062;2023-04-12T13:57:17;13.70;99.90
22114;DHT22;11223;49.968;9.062;2023-04-12T13:59:42;13.70;99.90
22114;DHT22;11223;49.968;9.062;2023-04-12T14:02:08;13.70;99.90
22114;DHT22;11223;49.968;9.062;2023-04-12T14:04:33;13.60;99.90
22114;DHT22;11223;49.968;9.062;2023-04-12T14:06:59;13.40;99.90
22114;DHT22;11223;49.968;9.062;2023-04-12T14:09:26;13.30;99.90
22114;DHT22;11223;49.968;9.062;2023-04-12T14:11:53;13.10;99.90
22114;DHT22;11223;49.968;9.062;2023-04-12T14:14:23;13.00;99.90
22114;DHT22;11223;49.968;9.062;2023-04-12T14:16:49;12.80;99.90
22114;DHT22;11223;49.968;9.062;2023-04-12T14:19:16;12.80;99.90
22114;DHT22;11223;49.968;9.062;2023-04-12T14:21:42;12.70;99.90
22114;DHT22;11223;49.968;9.062;2023-04-12T14:24:07;12.60;99.90
22114;DHT22;11223;49.968;9.062;2023-04-12T14:26:34;12.60;99.90
22114;DHT22;11223;49.968;9.062;2023-04-12T14:28:59;12.50;99.90
22114;DHT22;11223;49.968;9.062;2023-04-12T14:31:25;12.60;99.90
22114;DHT22;11223;49.968;9.062;2023-04-12T14:33:51;12.60;99.90
22114;DHT22;11223;49.968;9.062;2023-04-12T14:36:17;12.60;99.90
22114;DHT22;11223;49.968;9.062;2023-04-12T14:38:43;12.60;99.90
22114;DHT22;11223;49.968;9.062;2023-04-12T14:41:10;12.50;99.90
22114;DHT22;11223;49.968;9.062;2023-04-12T14:43:35;12.50;99.90
22114;DHT22;11223;49.968;9.062;2023-04-12T14:46:01;12.40;99.90
22114;DHT22;11223;49.968;9.062;2023-04-12T14:48:26;12.40;99.90
22114;DHT22;11223;49.968;9.062;2023-04-12T14:50:52;12.30;99.90
22114;DHT22;11223;49.968;9.062;2023-04-12T14:53:19;12.30;99.90
22114;DHT22;11223;49.968;9.062;2023-04-12T14:55:45;12.20;99.90
22114;DHT22;11223;49.968;9.062;2023-04-12T14:58:11;12.20;99.90
22114;DHT22;11223;49.968;9.062;2023-04-12T15:00:37;12.20;99.90
22114;DHT22;11223;49.968;9.062;2023-04-12T15:03:03;12.30;99.90
22114;DHT22;11223;49.968;9.062;2023-04-12T15:05:29;12.40;99.90
22114;DHT22;11223;49.968;9.062;2023-04-12T15:07:55;12.50;99.90
22114;DHT22;11223;49.968;9.062;2023-04-12T15:10:21;12.70;99.90
22114;DHT22;11223;49.968;9.062;2023-04-12T15:12:47;12.80;99.90
22114;DHT22;11223;49.968;9.062;2023-04-12T15:15:12;12.90;99.90
22114;DHT22;11223;49.968;9.062;2023-04-12T15:17:38;12.90;99.90
22114;DHT22;11223;49.968;9.062;2023-04-12T15:20:04;13.00;99.90
22114;DHT22;11223;49.968;9.062;2023-04-12T15:22:34;13.10;99.90
22114;DHT22;11223;49.968;9.062;2023-04-12T15:25:00;13.10;99.90
22114;DHT22;11223;49.968;9.062;2023-04-12T15:27:26;13.20;99.90
22114;DHT22;11223;49.968;9.062;2023-04-12T15:29:52;13.20;99.90
22114;DHT22;11223;49.968;9.062;2023-04-12T15:32:18;13.10;99.90
22114;DHT22;11223;49.968;9.062;2023-04-12T15:34:43;13.10;99.90
22114;DHT22;11223;49.968;9.062;2023-04-12T15:37:09;13.00;99.90
22114;DHT22;11223;49.968;9.062;2023-04-12T15:39:34;12.90;99.90
22114;DHT22;11223;49.968;9.062;2023-04-12T15:42:00;13.00;99.90
22114;DHT22;11223;49.968;9.062;2023-04-12T15:44:26;13.00;99.90
22114;DHT22;11223;49.968;9.062;2023-04-12T15:46:59;12.90;99.90
22114;DHT22;11223;49.968;9.062;2023-04-12T15:49:24;12.80;99.90
22114;DHT22;11223;49.968;9.062;2023-04-12T15:51:50;12.70;99.90
22114;DHT22;11223;49.968;9.062;2023-04-12T15:54:17;12.90;99.90
22114;DHT22;11223;49.968;9.062;2023-04-12T15:56:43;13.10;99.90
22114;DHT22;11223;49.968;9.062;2023-04-12T15:59:10;13.20;99.90
22114;DHT22;11223;49.968;9.062;2023-04-12T16:01:36;13.30;99.90
22114;DHT22;11223;49.968;9.062;2023-04-12T16:04:02;13.20;99.90
22114;DHT22;11223;49.968;9.062;2023-04-12T16:06:29;13.10;99.90